Time;durP1;ratioP1;P1;durP2;ratioP2;P2;SDS_P1;SDS_P2;PMS_P1;PMS_P2;Temp;Humidity;BMP_temperature;BMP_pressure;BME280_temperature;BME280_humidity;BME280_pressure;Samples;Min_cycle;Max_cycle;Signal;HPM_P1;HPM_P2
2022/01/08 00:01:54;;;;;;;10.45;5.18;;;2.70;99.90;;;;;;5051389;28;20025;-51
2022/01/08 00:04:19;;;;;;;12.45;5.78;;;2.70;99.90;;;;;;5051276;28;20105;-52
2022/01/08 00:06:45;;;;;;;10.60;5.75;;;2.70;99.90;;;;;;5051174;28;20375;-50
2022/01/08 00:09:11;;;;;;;11.73;6.35;;;2.70;99.90;;;;;;5051699;28;20394;-49
2022/01/08 00:11:40;;;;;;;15.35;7.20;;;2.70;99.90;;;;;;5051411;28;20032;-52
2022/01/08 00:14:06;;;;;;;9.82;6.18;;;2.70;99.90;;;;;;5052047;28;20025;-50
2022/01/08 00:16:33;;;;;;;10.15;6.57;;;2.60;99.90;;;;;;5051731;28;20111;-50
2022/01/08 00:18:59;;;;;;;13.05;6.35;;;2.60;99.90;;;;;;5051931;28;20106;-50
2022/01/08 00:21:24;;;;;;;15.65;7.07;;;2.60;99.90;;;;;;5065507;28;20047;-50
2022/01/08 00:23:50;;;;;;;11.68;7.47;;;2.60;99.90;;;;;;5069998;28;20028;-48
2022/01/08 00:26:16;;;;;;;9.45;5.80;;;2.60;99.90;;;;;;5070810;28;20078;-49
2022/01/08 00:28:41;;;;;;;11.20;6.40;;;2.60;99.90;;;;;;5070807;28;20029;-47
2022/01/08 00:31:10;;;;;;;11.55;7.00;;;2.60;99.90;;;;;;5071255;28;20021;-49
2022/01/08 00:33:37;;;;;;;12.73;7.05;;;2.60;99.90;;;;;;5071862;28;20140;-49
2022/01/08 00:36:03;;;;;;;13.43;7.95;;;2.60;99.90;;;;;;5071963;28;20029;-50
2022/01/08 00:38:29;;;;;;;14.18;8.70;;;2.60;99.90;;;;;;5070733;28;20418;-49
2022/01/08 00:40:54;;;;;;;12.27;8.48;;;2.60;99.90;;;;;;5075435;28;20108;-50
2022/01/08 00:43:20;;;;;;;14.63;8.45;;;2.60;99.90;;;;;;5074939;28;20089;-55
2022/01/08 00:45:45;;;;;;;16.40;9.35;;;2.70;99.90;;;;;;5075016;28;20078;-50
2022/01/08 00:48:11;;;;;;;23.17;9.75;;;2.60;99.90;;;;;;5073867;28;20055;-51
2022/01/08 00:50:36;;;;;;;19.83;9.73;;;2.60;99.90;;;;;;5073596;28;20020;-50
2022/01/08 00:53:02;;;;;;;15.43;9.35;;;2.70;99.90;;;;;;5075170;28;20032;-49
2022/01/08 00:55:27;;;;;;;19.05;9.75;;;2.70;99.90;;;;;;5075009;28;20025;-51
2022/01/08 00:57:53;;;;;;;14.98;9.48;;;2.70;99.90;;;;;;5075039;28;20121;-49
2022/01/08 01:00:18;;;;;;;20.95;10.07;;;2.70;99.90;;;;;;5074758;28;20037;-50
2022/01/08 01:02:44;;;;;;;16.05;9.00;;;2.80;99.90;;;;;;5074784;28;20048;-53
2022/01/08 01:05:10;;;;;;;20.42;10.80;;;2.80;99.90;;;;;;5074870;28;20027;-52
2022/01/08 01:07:36;;;;;;;21.58;11.20;;;2.70;99.90;;;;;;5074832;28;20381;-49
2022/01/08 01:10:04;;;;;;;23.30;11.65;;;2.80;99.90;;;;;;5074801;28;20090;-51
2022/01/08 01:12:30;;;;;;;19.77;11.93;;;2.80;99.90;;;;;;5074565;28;20017;-50
2022/01/08 01:14:55;;;;;;;23.23;12.82;;;2.80;99.90;;;;;;5074520;28;20086;-50
2022/01/08 01:17:21;;;;;;;22.80;11.60;;;2.80;99.90;;;;;;5074158;28;20028;-50
2022/01/08 01:19:48;;;;;;;22.10;11.20;;;2.90;99.90;;;;;;5073007;28;20063;-50
2022/01/08 01:22:17;;;;;;;25.42;13.77;;;2.80;99.90;;;;;;5074229;28;20028;-50
2022/01/08 01:24:42;;;;;;;21.35;12.25;;;2.80;99.90;;;;;;5074616;28;20085;-50
2022/01/08 01:30:02;;;;;;;21.55;12.60;;;2.80;99.90;;;;;;5074714;28;20032;-51
2022/01/08 01:48:21;;;;;;;24.83;12.38;;;2.80;99.90;;;;;;5075543;28;20035;-54
2022/01/08 01:50:47;;;;;;;27.92;12.95;;;2.80;99.90;;;;;;5074560;28;20401;-56
2022/01/08 01:53:12;;;;;;;25.02;12.45;;;2.90;99.90;;;;;;5074852;28;20020;-55
2022/01/08 01:55:39;;;;;;;28.45;14.15;;;2.80;99.90;;;;;;5074801;28;20456;-56
2022/01/08 01:58:06;;;;;;;21.90;12.68;;;2.80;99.90;;;;;;5075725;28;20449;-53
2022/01/08 02:00:32;;;;;;;28.70;13.73;;;2.80;99.90;;;;;;5074955;28;20039;-53
2022/01/08 02:02:59;;;;;;;30.98;14.25;;;2.90;99.90;;;;;;5075078;28;20028;-54
2022/01/08 02:05:25;;;;;;;27.13;14.50;;;2.90;99.90;;;;;;5074436;28;20017;-56
2022/01/08 02:07:53;;;;;;;28.00;15.10;;;2.90;99.90;;;;;;5074645;28;20120;-57
2022/01/08 02:10:19;;;;;;;25.65;13.70;;;2.90;99.90;;;;;;5074598;28;20025;-55
2022/01/08 02:12:44;;;;;;;31.23;16.50;;;3.00;99.90;;;;;;5075099;28;20039;-57
2022/01/08 02:15:10;;;;;;;27.27;15.63;;;2.90;99.90;;;;;;5075082;28;20028;-57
2022/01/08 02:17:36;;;;;;;29.58;16.08;;;3.00;99.90;;;;;;5074866;28;20028;-57
2022/01/08 02:20:01;;;;;;;34.15;16.05;;;2.90;99.90;;;;;;5074149;28;20025;-54
2022/01/08 02:22:27;;;;;;;32.00;16.58;;;2.90;99.90;;;;;;5074382;28;20074;-55
2022/01/08 02:24:53;;;;;;;30.00;16.25;;;2.90;99.90;;;;;;5074512;28;20026;-56
2022/01/08 02:27:18;;;;;;;33.53;17.60;;;2.90;99.90;;;;;;5074536;28;20051;-54
2022/01/08 02:29:45;;;;;;;41.60;18.23;;;2.90;99.90;;;;;;5074499;28;20478;-57
2022/01/08 02:32:15;;;;;;;35.13;19.63;;;3.00;99.90;;;;;;5074119;28;20031;-57
2022/01/08 02:34:43;;;;;;;34.97;19.02;;;3.00;99.90;;;;;;5074193;28;20512;-53
2022/01/08 02:37:09;;;;;;;41.17;19.42;;;3.10;99.90;;;;;;5072807;28;20034;-56
2022/01/08 02:39:40;;;;;;;33.42;17.75;;;3.10;99.90;;;;;;5073927;28;20100;-57
2022/01/08 02:42:07;;;;;;;38.10;19.23;;;3.00;99.90;;;;;;5074212;28;20389;-57
2022/01/08 02:44:33;;;;;;;33.70;19.15;;;3.00;99.90;;;;;;5073740;28;20542;-58
2022/01/08 02:46:59;;;;;;;37.42;19.20;;;3.00;99.90;;;;;;5073974;28;20107;-57
2022/01/08 02:49:25;;;;;;;40.20;19.90;;;2.90;99.90;;;;;;5074406;28;20034;-58
2022/01/08 02:51:51;;;;;;;34.28;18.85;;;2.90;99.90;;;;;;5073886;28;20508;-59
2022/01/08 02:54:17;;;;;;;42.08;20.05;;;2.90;99.90;;;;;;5074033;28;20082;-55
2022/01/08 02:56:47;;;;;;;39.42;19.15;;;2.90;99.90;;;;;;5073658;28;20029;-59
2022/01/08 02:59:14;;;;;;;38.72;18.83;;;2.80;99.90;;;;;;5073784;28;20073;-54
2022/01/08 03:01:40;;;;;;;37.92;19.42;;;2.80;99.90;;;;;;5073624;28;20036;-54
2022/01/08 03:04:07;;;;;;;34.83;19.10;;;2.80;99.90;;;;;;5073744;28;20024;-56
2022/01/08 03:06:33;;;;;;;37.72;20.00;;;2.80;99.90;;;;;;5074333;28;20366;-58
2022/01/08 03:08:59;;;;;;;31.08;17.42;;;2.80;99.90;;;;;;5073821;28;20024;-58
2022/01/08 03:11:24;;;;;;;30.42;17.05;;;2.80;99.90;;;;;;5073734;28;20067;-58
2022/01/08 03:13:50;;;;;;;38.28;18.38;;;2.80;99.90;;;;;;5074154;28;20031;-57
2022/01/08 03:16:17;;;;;;;35.75;18.15;;;2.80;99.90;;;;;;5074374;28;20154;-58
2022/01/08 03:18:43;;;;;;;32.15;17.10;;;2.80;99.90;;;;;;5074238;28;20044;-58
2022/01/08 03:21:14;;;;;;;32.85;16.92;;;2.80;99.90;;;;;;5073578;28;20035;-59
2022/01/08 03:23:48;;;;;;;;;;;2.80;99.90;;;;;;5074609;28;20029;-59
2022/01/08 03:26:16;;;;;;;33.80;16.42;;;2.80;99.90;;;;;;5073533;28;19947;-57
2022/01/08 03:28:41;;;;;;;29.90;15.63;;;2.90;99.90;;;;;;5072667;28;20525;-58
2022/01/08 03:31:07;;;;;;;29.70;16.63;;;2.90;99.90;;;;;;5072191;28;20060;-58
2022/01/08 03:33:32;;;;;;;26.67;16.40;;;2.90;99.90;;;;;;5073336;28;20115;-58
2022/01/08 03:35:58;;;;;;;34.33;17.40;;;2.90;99.90;;;;;;5073830;28;20032;-58
2022/01/08 03:38:24;;;;;;;29.42;16.65;;;2.80;99.90;;;;;;5073642;28;20024;-57
2022/01/08 03:40:49;;;;;;;34.78;16.77;;;2.80;99.90;;;;;;5073473;28;20060;-55
2022/01/08 03:43:15;;;;;;;30.88;17.67;;;2.80;99.90;;;;;;5072020;28;20028;-58
2022/01/08 03:45:41;;;;;;;32.55;16.25;;;2.80;99.90;;;;;;5073461;28;20068;-58
2022/01/08 03:50:35;;;;;;;30.33;16.17;;;2.70;99.90;;;;;;5073622;28;20016;-55
2022/01/08 03:53:01;;;;;;;31.55;16.38;;;2.70;99.90;;;;;;5073497;28;20032;-55
2022/01/08 03:55:26;;;;;;;32.30;15.88;;;2.60;99.90;;;;;;5074617;28;20028;-58
2022/01/08 03:57:52;;;;;;;36.03;17.92;;;2.60;99.90;;;;;;5073066;28;20032;-54
2022/01/08 04:00:17;;;;;;;27.92;16.25;;;2.60;99.90;;;;;;5074904;28;20029;-55
2022/01/08 04:02:43;;;;;;;33.50;17.58;;;2.70;99.90;;;;;;5073760;28;20389;-58
2022/01/08 04:05:09;;;;;;;37.20;17.63;;;2.70;99.90;;;;;;5073749;28;20107;-54
2022/01/08 04:07:34;;;;;;;29.85;15.77;;;2.70;99.90;;;;;;5074457;28;20016;-55
2022/01/08 04:10:00;;;;;;;32.88;16.65;;;2.70;99.90;;;;;;5073761;28;20090;-54
2022/01/08 04:12:38;;;;;;;34.80;17.10;;;2.70;99.90;;;;;;5071964;28;20029;-57
2022/01/08 04:15:08;;;;;;;34.45;17.02;;;2.70;99.90;;;;;;5077449;28;20036;-57
2022/01/08 04:17:34;;;;;;;33.95;17.33;;;2.60;99.90;;;;;;5077213;28;20051;-55
2022/01/08 04:20:00;;;;;;;32.50;17.45;;;2.60;99.90;;;;;;5076792;28;20025;-54
2022/01/08 04:22:26;;;;;;;33.95;18.17;;;2.50;99.90;;;;;;5076756;28;20389;-53
2022/01/08 04:24:54;;;;;;;33.88;17.83;;;2.50;99.90;;;;;;5077083;28;20056;-54
2022/01/08 04:27:20;;;;;;;33.05;17.33;;;2.50;99.90;;;;;;5075286;28;20094;-55
2022/01/08 04:29:46;;;;;;;37.20;18.00;;;2.50;99.90;;;;;;5076526;28;20504;-54
2022/01/08 04:32:11;;;;;;;40.63;19.85;;;2.40;99.90;;;;;;5076539;28;20412;-56
2022/01/08 04:34:37;;;;;;;45.83;18.92;;;2.50;99.90;;;;;;5076551;28;20036;-53
2022/01/08 04:37:02;;;;;;;39.80;19.23;;;2.40;99.90;;;;;;5077325;28;20024;-57
2022/01/08 04:39:28;;;;;;;42.17;20.27;;;2.40;99.90;;;;;;5077038;28;20458;-57
2022/01/08 04:41:54;;;;;;;42.72;20.58;;;2.40;99.90;;;;;;5076867;28;20146;-55
2022/01/08 04:44:19;;;;;;;38.53;19.95;;;2.30;99.90;;;;;;5076144;28;20052;-55
2022/01/08 04:46:45;;;;;;;46.10;20.30;;;2.30;99.90;;;;;;5076169;28;20392;-56
2022/01/08 04:49:11;;;;;;;42.67;21.17;;;2.30;99.90;;;;;;5075985;28;20027;-57
2022/01/08 04:51:37;;;;;;;43.90;21.20;;;2.30;99.90;;;;;;5076237;28;20059;-58
2022/01/08 04:54:03;;;;;;;43.53;21.10;;;2.30;99.90;;;;;;5076850;28;20024;-53
2022/01/08 04:56:28;;;;;;;43.60;22.00;;;2.40;99.90;;;;;;5076511;28;20028;-58
2022/01/08 04:58:54;;;;;;;41.33;21.05;;;2.40;99.90;;;;;;5076261;28;20100;-55
2022/01/08 05:01:20;;;;;;;44.22;22.75;;;2.50;99.90;;;;;;5074635;28;20488;-54
2022/01/08 05:03:45;;;;;;;40.78;20.63;;;2.40;99.90;;;;;;5074329;28;20029;-56
2022/01/08 05:06:11;;;;;;;40.67;21.45;;;2.50;99.90;;;;;;5076013;28;20021;-53
2022/01/08 05:08:36;;;;;;;40.60;21.20;;;2.50;99.90;;;;;;5075537;28;20025;-56
2022/01/08 05:11:02;;;;;;;44.45;21.58;;;2.40;99.90;;;;;;5075349;28;20020;-55
2022/01/08 05:13:28;;;;;;;41.70;21.08;;;2.40;99.90;;;;;;5075837;28;20400;-57
2022/01/08 05:15:54;;;;;;;46.38;23.50;;;2.40;99.90;;;;;;5075930;28;20028;-57
2022/01/08 05:18:20;;;;;;;48.38;23.23;;;2.40;99.90;;;;;;5075803;28;20025;-57
2022/01/08 05:20:55;;;;;;;45.85;22.27;;;2.40;99.90;;;;;;5075488;28;20029;-56
2022/01/08 05:23:20;;;;;;;45.63;22.27;;;2.50;99.90;;;;;;5074001;28;20572;-56
2022/01/08 05:25:46;;;;;;;45.47;22.23;;;2.50;99.90;;;;;;5074972;28;20104;-56
2022/01/08 05:28:11;;;;;;;42.67;22.88;;;2.60;99.90;;;;;;5075345;28;20025;-56
2022/01/08 05:30:37;;;;;;;37.08;19.88;;;2.60;99.90;;;;;;5075239;28;20032;-57
2022/01/08 05:33:03;;;;;;;42.70;20.25;;;2.60;99.90;;;;;;5074935;28;20086;-55
2022/01/08 05:35:29;;;;;;;42.92;21.10;;;2.60;99.90;;;;;;5075537;28;20112;-55
2022/01/08 05:37:55;;;;;;;42.33;21.60;;;2.70;99.90;;;;;;5075679;28;20457;-57
2022/01/08 05:40:22;;;;;;;44.13;21.45;;;2.70;99.90;;;;;;5075681;28;20033;-57
2022/01/08 05:42:48;;;;;;;49.75;23.13;;;2.70;99.90;;;;;;5075467;28;20466;-57
2022/01/08 05:45:13;;;;;;;44.17;22.02;;;2.80;99.90;;;;;;5075444;28;20025;-58
2022/01/08 05:47:39;;;;;;;46.22;21.42;;;2.80;99.90;;;;;;5075481;28;20024;-56
2022/01/08 05:50:06;;;;;;;42.05;21.70;;;2.80;99.90;;;;;;5074741;28;20070;-58
2022/01/08 05:52:31;;;;;;;43.22;21.02;;;2.80;99.90;;;;;;5074620;28;20115;-56
2022/01/08 05:54:57;;;;;;;44.72;21.48;;;2.80;99.90;;;;;;5074692;28;20501;-57
2022/01/08 05:57:22;;;;;;;43.63;22.10;;;2.80;99.90;;;;;;5074356;28;20480;-57
2022/01/08 05:59:48;;;;;;;39.38;19.83;;;2.80;99.90;;;;;;5074470;28;20457;-56
2022/01/08 06:02:13;;;;;;;37.67;20.48;;;2.80;99.90;;;;;;5073287;28;20114;-56
2022/01/08 06:04:39;;;;;;;42.10;21.92;;;2.80;99.90;;;;;;5074436;28;20496;-57
2022/01/08 06:07:04;;;;;;;39.97;21.23;;;2.80;99.90;;;;;;5074682;28;20039;-53
2022/01/08 06:09:30;;;;;;;48.42;21.95;;;2.80;99.90;;;;;;5074504;28;20056;-54
2022/01/08 06:11:56;;;;;;;36.13;20.58;;;2.80;99.90;;;;;;5074722;28;20020;-54
2022/01/08 06:14:22;;;;;;;42.08;21.15;;;2.80;99.90;;;;;;5074650;28;20028;-55
2022/01/08 06:16:48;;;;;;;34.63;19.45;;;2.70;99.90;;;;;;5074329;28;20036;-54
2022/01/08 06:19:15;;;;;;;41.92;21.23;;;2.70;99.90;;;;;;5074993;28;20043;-56
2022/01/08 06:21:40;;;;;;;41.70;20.08;;;2.70;99.90;;;;;;5074668;28;20033;-58
2022/01/08 06:24:06;;;;;;;37.90;21.35;;;2.80;99.90;;;;;;5074729;28;20335;-58
2022/01/08 06:26:32;;;;;;;40.75;21.13;;;2.80;99.90;;;;;;5074662;28;20052;-58
2022/01/08 06:28:58;;;;;;;40.08;19.75;;;2.80;99.90;;;;;;5075408;28;20080;-55
2022/01/08 06:31:24;;;;;;;38.45;21.15;;;2.80;99.90;;;;;;5074671;28;20102;-58
2022/01/08 06:33:50;;;;;;;45.15;21.92;;;2.80;99.90;;;;;;5074412;28;20115;-57
2022/01/08 06:36:19;;;;;;;37.83;21.88;;;2.80;99.90;;;;;;5073291;28;20430;-58
2022/01/08 06:38:46;;;;;;;38.47;20.50;;;2.80;99.90;;;;;;5074661;28;20033;-57
2022/01/08 06:41:11;;;;;;;43.72;20.10;;;2.80;99.90;;;;;;5074573;28;20493;-58
2022/01/08 06:43:37;;;;;;;48.20;21.25;;;2.80;99.90;;;;;;5073908;28;20036;-57
2022/01/08 06:46:03;;;;;;;39.97;21.00;;;2.70;99.90;;;;;;5073962;28;20087;-58
2022/01/08 06:48:28;;;;;;;42.67;19.48;;;2.70;99.90;;;;;;5073904;28;20485;-56
2022/01/08 06:50:54;;;;;;;43.00;21.30;;;2.70;99.90;;;;;;5074050;28;20029;-54
2022/01/08 06:53:19;;;;;;;38.35;21.55;;;2.70;99.90;;;;;;5074272;28;20455;-56
2022/01/08 06:55:45;;;;;;;39.83;19.20;;;2.60;99.90;;;;;;5073755;28;20112;-57
2022/01/08 06:58:11;;;;;;;37.50;21.20;;;2.60;99.90;;;;;;5074697;28;20021;-55
2022/01/08 07:00:36;;;;;;;40.33;19.88;;;2.60;99.90;;;;;;5073929;28;20028;-57
2022/01/08 07:03:03;;;;;;;37.45;20.00;;;2.60;99.90;;;;;;5072631;28;20433;-56
2022/01/08 07:05:28;;;;;;;35.92;20.42;;;2.60;99.90;;;;;;5073882;28;20021;-57
2022/01/08 07:07:54;;;;;;;41.97;20.00;;;2.60;99.90;;;;;;5074086;28;20496;-56
2022/01/08 07:10:20;;;;;;;34.22;18.42;;;2.70;99.90;;;;;;5072367;28;20035;-54
2022/01/08 07:12:45;;;;;;;34.60;18.15;;;2.70;99.90;;;;;;5073463;28;20031;-56
2022/01/08 07:15:12;;;;;;;31.95;17.83;;;2.70;99.90;;;;;;5073443;28;20020;-53
2022/01/08 07:17:39;;;;;;;34.63;18.95;;;2.80;99.90;;;;;;5073378;28;20025;-57
2022/01/08 07:20:05;;;;;;;34.80;19.00;;;2.80;99.90;;;;;;5073455;28;20024;-56
2022/01/08 07:22:31;;;;;;;31.70;17.42;;;2.80;99.90;;;;;;5073196;28;20111;-54
2022/01/08 07:24:56;;;;;;;41.70;18.50;;;2.70;99.90;;;;;;5072462;28;20067;-53
2022/01/08 07:27:22;;;;;;;34.67;18.45;;;2.70;99.90;;;;;;5074254;28;20017;-54
2022/01/08 07:29:47;;;;;;;34.35;18.60;;;2.70;99.90;;;;;;5073779;28;20104;-56
2022/01/08 07:32:13;;;;;;;33.72;17.88;;;2.60;99.90;;;;;;5072057;28;20074;-55
2022/01/08 07:34:38;;;;;;;27.25;17.17;;;2.60;99.90;;;;;;5073287;28;20564;-55
2022/01/08 07:37:04;;;;;;;34.08;17.92;;;2.50;99.90;;;;;;5084291;22;20059;-50
2022/01/08 07:39:30;;;;;;;35.85;18.13;;;2.50;99.90;;;;;;5070772;28;20024;-49
2022/01/08 07:41:55;;;;;;;31.90;17.45;;;2.50;99.90;;;;;;5070246;28;20024;-50
2022/01/08 07:44:21;;;;;;;36.13;16.85;;;2.50;99.90;;;;;;5070405;28;20101;-50
2022/01/08 07:46:46;;;;;;;36.13;18.50;;;2.50;99.90;;;;;;5070480;28;20093;-55
2022/01/08 07:49:12;;;;;;;35.42;18.40;;;2.40;99.90;;;;;;5073642;28;20461;-54
2022/01/08 07:51:37;;;;;;;40.15;18.95;;;2.40;99.90;;;;;;5074830;28;20081;-52
2022/01/08 07:54:03;;;;;;;35.08;18.67;;;2.40;99.90;;;;;;5057893;28;20027;-52
2022/01/08 07:56:28;;;;;;;40.00;20.15;;;2.40;99.90;;;;;;5076429;28;20036;-53
2022/01/08 07:58:54;;;;;;;34.90;18.75;;;2.40;99.90;;;;;;5076625;28;20385;-56
2022/01/08 08:01:21;;;;;;;34.20;19.58;;;2.40;99.90;;;;;;5058487;28;20035;-52
2022/01/08 08:03:47;;;;;;;38.20;20.85;;;2.30;99.90;;;;;;5076280;28;20028;-50
2022/01/08 08:06:13;;;;;;;42.92;21.42;;;2.30;99.90;;;;;;5077350;28;20099;-53
2022/01/08 08:08:38;;;;;;;36.08;20.35;;;2.30;99.90;;;;;;5076597;28;20052;-53
2022/01/08 08:11:04;;;;;;;41.30;22.08;;;2.20;99.90;;;;;;5076887;28;20016;-56
2022/01/08 08:13:29;;;;;;;45.63;23.20;;;2.20;99.90;;;;;;5075966;28;20504;-51
2022/01/08 08:15:55;;;;;;;49.17;22.50;;;2.10;99.90;;;;;;5076456;28;20131;-54
2022/01/08 08:18:21;;;;;;;48.75;22.90;;;2.10;99.90;;;;;;5076085;28;20031;-55
2022/01/08 08:20:46;;;;;;;43.50;21.30;;;2.10;99.90;;;;;;5076254;28;20091;-51
2022/01/08 08:23:12;;;;;;;43.38;22.08;;;2.10;99.90;;;;;;5075940;28;20032;-49
2022/01/08 08:25:38;;;;;;;48.97;23.00;;;2.10;99.90;;;;;;5076274;28;20029;-51
2022/01/08 08:28:05;;;;;;;43.15;21.73;;;2.10;99.90;;;;;;5075883;28;20028;-51
2022/01/08 08:30:33;;;;;;;42.05;21.27;;;2.10;99.90;;;;;;5075850;28;20027;-52
2022/01/08 08:32:58;;;;;;;43.38;21.88;;;2.10;99.90;;;;;;5075997;28;20028;-50
2022/01/08 08:35:24;;;;;;;49.83;22.92;;;2.10;99.90;;;;;;5075869;28;20024;-50
2022/01/08 08:37:49;;;;;;;46.20;22.00;;;2.10;99.90;;;;;;5075798;28;20040;-50
2022/01/08 08:40:15;;;;;;;43.72;22.25;;;2.10;99.90;;;;;;5076068;28;20024;-50
2022/01/08 08:42:41;;;;;;;45.28;22.58;;;2.10;99.90;;;;;;5075440;28;20028;-52
2022/01/08 08:45:08;;;;;;;46.42;22.75;;;2.20;99.90;;;;;;5075497;28;20112;-53
2022/01/08 08:47:34;;;;;;;42.88;22.25;;;2.10;99.90;;;;;;5075373;28;20099;-51
2022/01/08 08:50:00;;;;;;;42.92;22.17;;;2.20;99.90;;;;;;5075712;28;20501;-50
2022/01/08 08:52:26;;;;;;;49.17;22.77;;;2.20;99.90;;;;;;5057436;28;20039;-52
2022/01/08 08:54:52;;;;;;;46.70;21.42;;;2.20;99.90;;;;;;5075635;28;20027;-53
2022/01/08 08:57:18;;;;;;;43.67;22.08;;;2.30;99.90;;;;;;5075446;28;20088;-53
2022/01/08 08:59:44;;;;;;;43.03;21.90;;;2.30;99.90;;;;;;5074239;28;20563;-53
2022/01/08 09:02:09;;;;;;;43.35;22.50;;;2.30;99.90;;;;;;5075534;28;20042;-54
2022/01/08 09:04:36;;;;;;;43.20;20.98;;;2.40;99.90;;;;;;5075652;28;20077;-50
2022/01/08 09:07:04;;;;;;;41.90;21.88;;;2.40;99.90;;;;;;5075036;28;20027;-51
2022/01/08 09:09:29;;;;;;;42.70;22.35;;;2.40;99.90;;;;;;5075150;28;20021;-50
2022/01/08 09:11:55;;;;;;;45.13;22.50;;;2.50;99.90;;;;;;5075200;28;20155;-51
2022/01/08 09:14:20;;;;;;;43.42;22.33;;;2.50;99.90;;;;;;5075948;28;20112;-55
2022/01/08 09:16:51;;;;;;;36.17;20.65;;;2.50;99.90;;;;;;5075181;28;20112;-53
2022/01/08 09:19:18;;;;;;;41.83;21.23;;;2.50;99.90;;;;;;5075424;28;20025;-51
2022/01/08 09:21:44;;;;;;;35.78;20.40;;;2.60;99.90;;;;;;5074913;28;20073;-52
2022/01/08 09:24:12;;;;;;;45.00;20.90;;;2.60;99.90;;;;;;5074908;28;20036;-52
2022/01/08 09:26:39;;;;;;;36.10;19.75;;;2.70;99.90;;;;;;5072893;28;20103;-52
2022/01/08 09:29:05;;;;;;;43.65;22.42;;;2.70;99.90;;;;;;5073526;28;20024;-53
2022/01/08 09:31:31;;;;;;;39.08;19.77;;;2.80;99.90;;;;;;5074902;28;20096;-51
2022/01/08 09:33:57;;;;;;;40.70;20.67;;;2.80;99.90;;;;;;5071963;28;20025;-55
2022/01/08 09:36:23;;;;;;;33.13;20.38;;;2.80;99.90;;;;;;5064121;28;20583;-49
2022/01/08 09:38:49;;;;;;;34.60;19.10;;;2.90;99.90;;;;;;5062308;28;20082;-49
2022/01/08 09:41:15;;;;;;;42.58;19.55;;;2.90;99.90;;;;;;5064791;28;20028;-54
2022/01/08 09:43:41;;;;;;;35.22;19.77;;;2.90;99.90;;;;;;5066963;28;20103;-52
2022/01/08 09:46:07;;;;;;;34.28;19.77;;;3.00;99.90;;;;;;5064307;28;20059;-51
2022/01/08 09:48:32;;;;;;;36.63;19.17;;;3.00;99.90;;;;;;5062589;28;20017;-54
2022/01/08 09:50:58;;;;;;;37.00;18.75;;;3.10;99.90;;;;;;5062886;28;20401;-52
2022/01/08 09:53:24;;;;;;;42.70;18.10;;;3.10;99.90;;;;;;5063935;28;20461;-53
2022/01/08 09:55:49;;;;;;;36.92;18.40;;;3.20;99.90;;;;;;5062109;28;20025;-53
2022/01/08 09:58:15;;;;;;;39.65;19.63;;;3.20;99.90;;;;;;5063178;28;20036;-52
2022/01/08 10:00:44;;;;;;;30.92;18.30;;;3.30;99.90;;;;;;5063567;28;20070;-54
2022/01/08 10:03:16;;;;;;;31.05;18.27;;;3.30;99.90;;;;;;5061511;28;20024;-50
2022/01/08 10:05:51;;;;;;;34.17;19.17;;;3.30;99.90;;;;;;5062488;28;20044;-51
2022/01/08 10:08:23;;;;;;;40.05;19.58;;;3.40;99.90;;;;;;5062704;28;20028;-49
2022/01/08 10:11:09;;;;;;;35.22;18.30;;;3.40;99.90;;;;;;5061183;28;20017;-52
2022/01/08 10:13:39;;;;;;;30.48;17.50;;;3.40;99.90;;;;;;5057591;28;20056;-52
2022/01/08 10:18:59;;;;;;;34.35;17.98;;;3.50;99.90;;;;;;5053692;28;20049;-53
2022/01/08 10:21:27;;;;;;;34.63;17.92;;;3.50;99.90;;;;;;5065918;28;20029;-50
2022/01/08 10:23:54;;;;;;;35.28;17.90;;;3.60;99.90;;;;;;5035257;28;20124;-54
2022/01/08 10:26:22;;;;;;;37.72;18.15;;;3.60;99.90;;;;;;5060329;28;20032;-49
2022/01/08 10:28:56;;;;;;;28.90;16.50;;;3.70;99.90;;;;;;5062428;28;20021;-51
2022/01/08 10:31:29;;;;;;;31.60;16.80;;;3.70;99.90;;;;;;5062173;28;20435;-49
2022/01/08 10:34:05;;;;;;;35.38;17.80;;;3.70;99.90;;;;;;5060634;28;20060;-49
2022/01/08 10:36:37;;;;;;;37.88;17.05;;;3.70;99.90;;;;;;5060607;28;20075;-50
2022/01/08 10:39:24;;;;;;;26.13;15.45;;;3.80;99.90;;;;;;5044114;28;20074;-52
2022/01/08 10:41:52;;;;;;;31.27;17.77;;;3.90;99.90;;;;;;5047997;28;20086;-48
2022/01/08 10:44:23;;;;;;;27.33;15.43;;;3.90;99.90;;;;;;5061466;28;20070;-54
2022/01/08 10:46:56;;;;;;;29.98;15.98;;;3.90;99.90;;;;;;5060664;28;20109;-50
2022/01/08 10:49:39;;;;;;;28.25;14.98;;;3.90;99.90;;;;;;5063797;28;20028;-51
2022/01/08 10:52:12;;;;;;;30.67;16.15;;;3.90;99.90;;;;;;5069263;28;20021;-50
2022/01/08 10:54:46;;;;;;;30.17;15.95;;;3.90;99.90;;;;;;5043611;28;20029;-51
2022/01/08 10:57:14;;;;;;;28.90;15.95;;;3.90;99.90;;;;;;5042610;28;20033;-50
2022/01/08 10:59:42;;;;;;;28.45;15.52;;;4.00;99.90;;;;;;5060833;28;20100;-50
2022/01/08 11:02:11;;;;;;;29.55;16.13;;;4.10;99.90;;;;;;5044414;28;20027;-51
2022/01/08 11:04:45;;;;;;;24.63;14.88;;;4.20;99.90;;;;;;5062836;28;20397;-51
2022/01/08 11:07:24;;;;;;;32.38;15.55;;;4.30;99.90;;;;;;5063213;28;20112;-52
2022/01/08 11:10:04;;;;;;;36.25;16.77;;;4.30;99.90;;;;;;5057468;28;20108;-52
2022/01/08 11:12:41;;;;;;;28.92;15.35;;;4.30;99.90;;;;;;5052268;28;20393;-50
2022/01/08 11:17:47;;;;;;;25.17;13.85;;;4.40;99.90;;;;;;5068772;28;20032;-52
2022/01/08 11:20:14;;;;;;;26.25;14.93;;;4.40;99.90;;;;;;5069108;28;20029;-50
2022/01/08 11:22:48;;;;;;;23.17;14.48;;;4.30;99.90;;;;;;5051814;28;20447;-50
2022/01/08 11:25:16;;;;;;;25.25;15.18;;;4.40;99.90;;;;;;5068072;28;20036;-51
2022/01/08 11:27:59;;;;;;;28.38;14.10;;;4.40;99.90;;;;;;5072947;28;20021;-50
2022/01/08 11:30:30;;;;;;;31.73;15.15;;;4.40;99.90;;;;;;5072692;28;20024;-53
2022/01/08 11:33:01;;;;;;;25.80;14.85;;;4.40;99.90;;;;;;5072623;28;20128;-49
2022/01/08 11:35:30;;;;;;;30.05;15.02;;;4.50;99.90;;;;;;5072948;28;20028;-50
2022/01/08 11:37:56;;;;;;;29.77;14.82;;;4.50;99.90;;;;;;5072429;28;20135;-54
2022/01/08 11:40:26;;;;;;;26.02;15.27;;;4.50;99.90;;;;;;5062535;28;20025;-53
2022/01/08 11:42:52;;;;;;;33.17;14.70;;;4.50;99.90;;;;;;5042830;28;20028;-54
2022/01/08 11:45:21;;;;;;;30.60;14.25;;;4.60;99.90;;;;;;5062081;28;20040;-51
2022/01/08 11:47:51;;;;;;;22.40;14.10;;;4.60;99.90;;;;;;5039003;28;20420;-50
2022/01/08 11:50:22;;;;;;;30.92;15.38;;;4.70;99.90;;;;;;5034218;28;20227;-49
2022/01/08 11:53:07;;;;;;;;;;;4.70;99.90;;;;;;5052693;28;20458;-52
2022/01/08 11:55:34;;;;;;;24.60;13.55;;;4.80;99.90;;;;;;5052030;28;19905;-50
2022/01/08 11:58:39;;;;;;;25.52;13.95;;;4.80;99.90;;;;;;5052546;28;20409;-52
2022/01/08 12:01:10;;;;;;;25.75;14.32;;;4.80;99.90;;;;;;5047191;28;20462;-49
2022/01/08 12:03:40;;;;;;;24.80;13.82;;;4.90;99.90;;;;;;5052305;28;20025;-49
2022/01/08 12:06:23;;;;;;;30.58;14.85;;;4.90;99.90;;;;;;5052258;28;20090;-49
2022/01/08 12:11:44;;;;;;;28.23;14.43;;;4.90;99.90;;;;;;5052743;28;20033;-48
2022/01/08 12:14:14;;;;;;;25.02;14.35;;;4.90;99.90;;;;;;5052272;28;20071;-50
2022/01/08 12:16:41;;;;;;;29.17;13.82;;;5.00;99.90;;;;;;5052339;28;20163;-51
2022/01/08 12:19:10;;;;;;;28.02;13.88;;;5.00;99.90;;;;;;5052480;28;20477;-51
2022/01/08 12:21:40;;;;;;;21.38;13.38;;;5.00;99.90;;;;;;5052134;28;20063;-49
2022/01/08 12:24:32;;;;;;;21.48;12.25;;;5.00;99.90;;;;;;5052517;28;20032;-49
2022/01/08 12:27:01;;;;;;;26.88;13.68;;;4.90;99.90;;;;;;5029745;28;20060;-49
2022/01/08 12:29:39;;;;;;;25.92;12.98;;;4.90;99.90;;;;;;5052536;28;20021;-48
2022/01/08 12:32:29;;;;;;;24.83;12.85;;;5.00;99.90;;;;;;5052247;28;20102;-51
2022/01/08 12:35:22;;;;;;;24.42;13.70;;;5.00;99.90;;;;;;5054405;28;20035;-49
2022/01/08 12:38:02;;;;;;;29.52;12.93;;;5.00;99.90;;;;;;5055753;28;20044;-53
2022/01/08 12:40:38;;;;;;;26.02;13.10;;;4.90;99.90;;;;;;5038283;28;20021;-51
2022/01/08 12:43:29;;;;;;;22.67;12.60;;;4.90;99.90;;;;;;5055428;28;20048;-49
2022/01/08 12:46:15;;;;;;;21.95;11.95;;;4.90;99.90;;;;;;5055772;28;20036;-49
2022/01/08 12:49:03;;;;;;;23.40;12.77;;;4.90;99.90;;;;;;5038206;28;20036;-52
2022/01/08 12:51:42;;;;;;;27.38;12.95;;;4.90;99.90;;;;;;5055489;28;20021;-49
2022/01/08 12:54:08;;;;;;;28.67;11.55;;;4.90;99.90;;;;;;5055583;28;20032;-49
2022/01/08 12:56:34;;;;;;;25.48;11.73;;;5.00;99.90;;;;;;5055117;28;20025;-51
2022/01/08 12:59:02;;;;;;;26.08;12.55;;;5.00;99.90;;;;;;5055231;28;20028;-52
2022/01/08 13:01:28;;;;;;;35.75;11.73;;;4.90;99.90;;;;;;5055557;28;20028;-50
2022/01/08 13:03:58;;;;;;;23.80;12.38;;;4.90;99.90;;;;;;5055246;28;20159;-51
2022/01/08 13:06:34;;;;;;;27.08;11.70;;;4.90;99.90;;;;;;5070041;28;20058;-50
2022/01/08 13:09:03;;;;;;;32.30;13.02;;;4.80;99.90;;;;;;5061794;28;20032;-50
2022/01/08 13:11:32;;;;;;;28.92;13.40;;;4.80;99.90;;;;;;5075338;28;20033;-49